Reva, South Dakota
Current Conditions -  °F | °C
As of 8:53 PM on Wednesday 22 Oct 2014 (Local Time) from KHEI Reporting Station
Clear Clear  
Wind Chill: 40°   Ceiling: Unl
Heat Index: 40°   Visibility: 10mi
Dew Point: 28°   Wind: 0mph
Humidity: 63%   Direction: NA
Pressure: 29.97"   Gusts: NA
Location:  45.55°N, 103.08°W
Report Text: KHEI 230253Z AUTO 00000KT 10SM CLR 04/M02 A2997 RMK AO2 SLP160 T00441022 51010
Loading
Personal Weather Stations






























Interactive Weather Map
Tropical Storm Tracking
New forecast layout! Learn more

10-Day Weather Forecast

Advertisements
Track Severe Weather on mobile